sensor_id;sensor_type;location;lat;lon;timestamp;temperature;humidity
52669;DHT22;59898;52.786;6.892;2023-08-06T00:00:30;14.70;95.80
52669;DHT22;59898;52.786;6.892;2023-08-06T00:03:51;14.70;95.80
52669;DHT22;59898;52.786;6.892;2023-08-06T00:07:12;14.70;95.60
52669;DHT22;59898;52.786;6.892;2023-08-06T00:10:32;14.70;95.60
52669;DHT22;59898;52.786;6.892;2023-08-06T00:13:53;14.70;95.60
52669;DHT22;59898;52.786;6.892;2023-08-06T00:17:13;14.70;95.80
52669;DHT22;59898;52.786;6.892;2023-08-06T00:20:34;14.60;95.60
52669;DHT22;59898;52.786;6.892;2023-08-06T00:23:55;14.60;95.70
52669;DHT22;59898;52.786;6.892;2023-08-06T00:27:15;14.60;95.70
52669;DHT22;59898;52.786;6.892;2023-08-06T00:30:36;14.50;95.80
52669;DHT22;59898;52.786;6.892;2023-08-06T00:33:56;14.60;95.70
52669;DHT22;59898;52.786;6.892;2023-08-06T00:37:17;14.50;95.70
52669;DHT22;59898;52.786;6.892;2023-08-06T00:40:38;14.50;95.70
52669;DHT22;59898;52.786;6.892;2023-08-06T00:43:58;14.50;95.80
52669;DHT22;59898;52.786;6.892;2023-08-06T00:47:19;14.50;95.80
52669;DHT22;59898;52.786;6.892;2023-08-06T00:50:40;14.50;96.10
52669;DHT22;59898;52.786;6.892;2023-08-06T00:54:01;14.50;95.90
52669;DHT22;59898;52.786;6.892;2023-08-06T00:57:24;14.40;96.10
52669;DHT22;59898;52.786;6.892;2023-08-06T01:00:46;14.50;96.00
52669;DHT22;59898;52.786;6.892;2023-08-06T01:04:07;14.50;96.30
52669;DHT22;59898;52.786;6.892;2023-08-06T01:07:41;14.50;96.30
52669;DHT22;59898;52.786;6.892;2023-08-06T01:11:26;14.40;96.50
52669;DHT22;59898;52.786;6.892;2023-08-06T01:15:06;14.40;96.40
52669;DHT22;59898;52.786;6.892;2023-08-06T01:18:28;14.40;96.40
52669;DHT22;59898;52.786;6.892;2023-08-06T01:21:49;14.40;96.60
52669;DHT22;59898;52.786;6.892;2023-08-06T01:25:10;14.40;96.20
52669;DHT22;59898;52.786;6.892;2023-08-06T01:28:43;14.50;96.40
52669;DHT22;59898;52.786;6.892;2023-08-06T01:32:05;14.50;96.30
52669;DHT22;59898;52.786;6.892;2023-08-06T01:35:28;14.50;96.50
52669;DHT22;59898;52.786;6.892;2023-08-06T01:38:52;14.50;96.30
52669;DHT22;59898;52.786;6.892;2023-08-06T01:42:13;14.50;96.40
52669;DHT22;59898;52.786;6.892;2023-08-06T01:45:34;14.50;96.80
52669;DHT22;59898;52.786;6.892;2023-08-06T01:48:54;14.50;96.50
52669;DHT22;59898;52.786;6.892;2023-08-06T01:52:15;14.50;96.30
52669;DHT22;59898;52.786;6.892;2023-08-06T01:55:35;14.40;96.60
52669;DHT22;59898;52.786;6.892;2023-08-06T01:58:56;14.50;96.80
52669;DHT22;59898;52.786;6.892;2023-08-06T02:02:16;14.40;96.80
52669;DHT22;59898;52.786;6.892;2023-08-06T02:05:37;14.40;96.80
52669;DHT22;59898;52.786;6.892;2023-08-06T02:08:58;14.50;96.90
52669;DHT22;59898;52.786;6.892;2023-08-06T02:12:18;14.40;96.90
52669;DHT22;59898;52.786;6.892;2023-08-06T02:15:43;14.40;96.80
52669;DHT22;59898;52.786;6.892;2023-08-06T02:19:03;14.50;96.70
52669;DHT22;59898;52.786;6.892;2023-08-06T02:22:24;14.40;96.90
52669;DHT22;59898;52.786;6.892;2023-08-06T02:25:45;14.40;96.80
52669;DHT22;59898;52.786;6.892;2023-08-06T02:29:08;14.40;96.80
52669;DHT22;59898;52.786;6.892;2023-08-06T02:32:32;14.40;97.00
52669;DHT22;59898;52.786;6.892;2023-08-06T02:36:00;14.40;97.20
52669;DHT22;59898;52.786;6.892;2023-08-06T02:39:21;14.40;96.90
52669;DHT22;59898;52.786;6.892;2023-08-06T02:42:42;14.40;97.10
52669;DHT22;59898;52.786;6.892;2023-08-06T02:46:02;14.40;97.00
52669;DHT22;59898;52.786;6.892;2023-08-06T02:49:23;14.40;96.90
52669;DHT22;59898;52.786;6.892;2023-08-06T02:52:43;14.40;96.90
52669;DHT22;59898;52.786;6.892;2023-08-06T02:56:04;14.40;96.80
52669;DHT22;59898;52.786;6.892;2023-08-06T02:59:25;14.40;96.80
52669;DHT22;59898;52.786;6.892;2023-08-06T03:02:45;14.40;96.90
52669;DHT22;59898;52.786;6.892;2023-08-06T03:06:06;14.40;96.80
52669;DHT22;59898;52.786;6.892;2023-08-06T03:09:26;14.40;96.80
52669;DHT22;59898;52.786;6.892;2023-08-06T03:12:47;14.40;96.70
52669;DHT22;59898;52.786;6.892;2023-08-06T03:16:07;14.30;96.50
52669;DHT22;59898;52.786;6.892;2023-08-06T03:19:28;14.40;96.60
52669;DHT22;59898;52.786;6.892;2023-08-06T03:22:49;14.40;96.50
52669;DHT22;59898;52.786;6.892;2023-08-06T03:26:10;14.40;96.50
52669;DHT22;59898;52.786;6.892;2023-08-06T03:29:30;14.40;96.40
52669;DHT22;59898;52.786;6.892;2023-08-06T03:32:51;14.40;96.40
52669;DHT22;59898;52.786;6.892;2023-08-06T03:36:12;14.40;96.30
52669;DHT22;59898;52.786;6.892;2023-08-06T03:39:32;14.40;96.40
52669;DHT22;59898;52.786;6.892;2023-08-06T03:42:53;14.30;96.50
52669;DHT22;59898;52.786;6.892;2023-08-06T03:46:13;14.30;96.60
52669;DHT22;59898;52.786;6.892;2023-08-06T03:49:34;14.30;96.80
52669;DHT22;59898;52.786;6.892;2023-08-06T03:56:19;14.20;96.70
52669;DHT22;59898;52.786;6.892;2023-08-06T03:59:40;14.20;96.80
52669;DHT22;59898;52.786;6.892;2023-08-06T04:03:01;14.30;96.80
52669;DHT22;59898;52.786;6.892;2023-08-06T04:06:21;14.30;96.70
52669;DHT22;59898;52.786;6.892;2023-08-06T04:09:53;14.30;96.70
52669;DHT22;59898;52.786;6.892;2023-08-06T04:13:14;14.30;96.70
52669;DHT22;59898;52.786;6.892;2023-08-06T04:16:34;14.30;96.90
52669;DHT22;59898;52.786;6.892;2023-08-06T04:19:55;14.30;96.80
52669;DHT22;59898;52.786;6.892;2023-08-06T04:23:18;14.30;96.80
52669;DHT22;59898;52.786;6.892;2023-08-06T04:26:39;14.30;96.80
52669;DHT22;59898;52.786;6.892;2023-08-06T04:29:59;14.30;96.70
52669;DHT22;59898;52.786;6.892;2023-08-06T04:33:20;14.30;96.80
52669;DHT22;59898;52.786;6.892;2023-08-06T04:36:41;14.30;96.80
52669;DHT22;59898;52.786;6.892;2023-08-06T04:40:01;14.30;96.80
52669;DHT22;59898;52.786;6.892;2023-08-06T04:43:22;14.30;96.90
52669;DHT22;59898;52.786;6.892;2023-08-06T04:46:43;14.30;96.90
52669;DHT22;59898;52.786;6.892;2023-08-06T04:50:03;14.30;96.80
52669;DHT22;59898;52.786;6.892;2023-08-06T04:53:24;14.30;96.70
52669;DHT22;59898;52.786;6.892;2023-08-06T04:56:45;14.30;96.80
52669;DHT22;59898;52.786;6.892;2023-08-06T05:00:06;14.40;96.90
52669;DHT22;59898;52.786;6.892;2023-08-06T05:03:26;14.40;96.70
52669;DHT22;59898;52.786;6.892;2023-08-06T05:06:48;14.50;96.60
52669;DHT22;59898;52.786;6.892;2023-08-06T05:10:09;14.50;96.40
52669;DHT22;59898;52.786;6.892;2023-08-06T05:13:29;14.50;96.60
52669;DHT22;59898;52.786;6.892;2023-08-06T05:16:50;14.50;96.60
52669;DHT22;59898;52.786;6.892;2023-08-06T05:20:11;14.50;96.80
52669;DHT22;59898;52.786;6.892;2023-08-06T05:23:31;14.40;96.70
52669;DHT22;59898;52.786;6.892;2023-08-06T05:26:52;14.40;96.80
52669;DHT22;59898;52.786;6.892;2023-08-06T05:30:12;14.40;96.80
52669;DHT22;59898;52.786;6.892;2023-08-06T05:33:33;14.50;96.80
52669;DHT22;59898;52.786;6.892;2023-08-06T05:36:54;14.50;96.70
52669;DHT22;59898;52.786;6.892;2023-08-06T05:40:14;14.50;96.80
52669;DHT22;59898;52.786;6.892;2023-08-06T05:43:35;14.50;96.70
52669;DHT22;59898;52.786;6.892;2023-08-06T05:46:55;14.50;96.40
52669;DHT22;59898;52.786;6.892;2023-08-06T05:50:16;14.60;96.30
52669;DHT22;59898;52.786;6.892;2023-08-06T05:53:37;14.70;96.20
52669;DHT22;59898;52.786;6.892;2023-08-06T05:56:57;14.70;96.20
52669;DHT22;59898;52.786;6.892;2023-08-06T06:00:18;14.80;96.10
52669;DHT22;59898;52.786;6.892;2023-08-06T06:03:39;14.90;96.00
52669;DHT22;59898;52.786;6.892;2023-08-06T06:06:59;14.90;95.70
52669;DHT22;59898;52.786;6.892;2023-08-06T06:10:20;14.90;95.50
52669;DHT22;59898;52.786;6.892;2023-08-06T06:13:40;15.00;95.50
52669;DHT22;59898;52.786;6.892;2023-08-06T06:17:01;15.00;95.30
52669;DHT22;59898;52.786;6.892;2023-08-06T06:20:22;15.00;95.30
52669;DHT22;59898;52.786;6.892;2023-08-06T06:23:42;15.10;94.90
52669;DHT22;59898;52.786;6.892;2023-08-06T06:27:03;15.20;94.90
52669;DHT22;59898;52.786;6.892;2023-08-06T06:30:24;15.20;94.80
52669;DHT22;59898;52.786;6.892;2023-08-06T06:33:44;15.30;94.80
52669;DHT22;59898;52.786;6.892;2023-08-06T06:37:05;15.40;94.50
52669;DHT22;59898;52.786;6.892;2023-08-06T06:40:26;15.40;94.20
52669;DHT22;59898;52.786;6.892;2023-08-06T06:43:46;15.50;94.20
52669;DHT22;59898;52.786;6.892;2023-08-06T06:47:07;15.50;93.70
52669;DHT22;59898;52.786;6.892;2023-08-06T06:50:27;15.50;93.70
52669;DHT22;59898;52.786;6.892;2023-08-06T06:53:48;15.50;93.70
52669;DHT22;59898;52.786;6.892;2023-08-06T06:57:08;15.60;93.70
52669;DHT22;59898;52.786;6.892;2023-08-06T07:00:29;15.60;93.60
52669;DHT22;59898;52.786;6.892;2023-08-06T07:03:50;15.60;93.40
52669;DHT22;59898;52.786;6.892;2023-08-06T07:07:10;15.60;93.50
52669;DHT22;59898;52.786;6.892;2023-08-06T07:10:31;15.70;93.50
52669;DHT22;59898;52.786;6.892;2023-08-06T07:13:56;15.80;93.40
52669;DHT22;59898;52.786;6.892;2023-08-06T07:17:18;15.90;92.70
52669;DHT22;59898;52.786;6.892;2023-08-06T07:20:39;15.80;92.50
52669;DHT22;59898;52.786;6.892;2023-08-06T07:23:59;15.90;92.70
52669;DHT22;59898;52.786;6.892;2023-08-06T07:27:20;16.00;92.60
52669;DHT22;59898;52.786;6.892;2023-08-06T07:30:41;16.00;92.40
52669;DHT22;59898;52.786;6.892;2023-08-06T07:34:02;16.10;91.90
52669;DHT22;59898;52.786;6.892;2023-08-06T07:37:23;16.20;91.70
52669;DHT22;59898;52.786;6.892;2023-08-06T07:40:44;16.30;91.20
52669;DHT22;59898;52.786;6.892;2023-08-06T07:44:05;16.40;91.00
52669;DHT22;59898;52.786;6.892;2023-08-06T07:47:25;16.50;90.90
52669;DHT22;59898;52.786;6.892;2023-08-06T07:50:46;16.60;90.60
52669;DHT22;59898;52.786;6.892;2023-08-06T07:54:10;16.60;90.10
52669;DHT22;59898;52.786;6.892;2023-08-06T07:57:31;16.70;89.90
52669;DHT22;59898;52.786;6.892;2023-08-06T08:00:52;16.60;89.40
52669;DHT22;59898;52.786;6.892;2023-08-06T08:04:13;16.60;89.80
52669;DHT22;59898;52.786;6.892;2023-08-06T08:07:34;16.70;89.80
52669;DHT22;59898;52.786;6.892;2023-08-06T08:10:55;16.80;89.30
52669;DHT22;59898;52.786;6.892;2023-08-06T08:14:16;16.80;89.10
52669;DHT22;59898;52.786;6.892;2023-08-06T08:17:36;16.80;88.60
52669;DHT22;59898;52.786;6.892;2023-08-06T08:20:57;16.70;88.90
52669;DHT22;59898;52.786;6.892;2023-08-06T08:24:18;16.70;89.20
52669;DHT22;59898;52.786;6.892;2023-08-06T08:27:40;16.80;89.30
52669;DHT22;59898;52.786;6.892;2023-08-06T08:31:00;16.90;89.10
52669;DHT22;59898;52.786;6.892;2023-08-06T08:34:21;17.00;88.60
52669;DHT22;59898;52.786;6.892;2023-08-06T08:37:42;17.20;88.50
52669;DHT22;59898;52.786;6.892;2023-08-06T08:41:04;17.40;88.00
52669;DHT22;59898;52.786;6.892;2023-08-06T08:44:24;17.50;87.30
52669;DHT22;59898;52.786;6.892;2023-08-06T08:47:48;17.60;87.00
52669;DHT22;59898;52.786;6.892;2023-08-06T08:51:10;17.80;86.50
52669;DHT22;59898;52.786;6.892;2023-08-06T08:54:32;17.90;86.30
52669;DHT22;59898;52.786;6.892;2023-08-06T08:57:53;18.10;85.90
52669;DHT22;59898;52.786;6.892;2023-08-06T09:01:15;18.20;84.30
52669;DHT22;59898;52.786;6.892;2023-08-06T09:04:36;18.10;84.40
52669;DHT22;59898;52.786;6.892;2023-08-06T09:08:02;18.00;85.20
52669;DHT22;59898;52.786;6.892;2023-08-06T09:11:23;18.20;85.50
52669;DHT22;59898;52.786;6.892;2023-08-06T09:14:44;18.40;85.10
52669;DHT22;59898;52.786;6.892;2023-08-06T09:18:11;18.60;84.70
52669;DHT22;59898;52.786;6.892;2023-08-06T09:21:32;18.70;84.10
52669;DHT22;59898;52.786;6.892;2023-08-06T09:24:52;18.90;83.70
52669;DHT22;59898;52.786;6.892;2023-08-06T09:28:13;19.10;83.40
52669;DHT22;59898;52.786;6.892;2023-08-06T09:35:00;19.30;82.30
52669;DHT22;59898;52.786;6.892;2023-08-06T09:38:21;19.40;81.70
52669;DHT22;59898;52.786;6.892;2023-08-06T09:41:45;19.40;81.50
52669;DHT22;59898;52.786;6.892;2023-08-06T09:45:06;19.50;80.90
52669;DHT22;59898;52.786;6.892;2023-08-06T09:48:27;19.70;80.80
52669;DHT22;59898;52.786;6.892;2023-08-06T09:51:47;19.80;78.30
52669;DHT22;59898;52.786;6.892;2023-08-06T09:55:12;19.70;78.40
52669;DHT22;59898;52.786;6.892;2023-08-06T09:58:33;19.80;79.10
52669;DHT22;59898;52.786;6.892;2023-08-06T10:01:54;20.00;79.30
52669;DHT22;59898;52.786;6.892;2023-08-06T10:05:18;20.10;78.30
52669;DHT22;59898;52.786;6.892;2023-08-06T10:08:39;20.20;78.40
52669;DHT22;59898;52.786;6.892;2023-08-06T10:12:01;20.40;78.30
52669;DHT22;59898;52.786;6.892;2023-08-06T10:15:25;20.50;77.90
52669;DHT22;59898;52.786;6.892;2023-08-06T10:18:47;20.60;77.20
52669;DHT22;59898;52.786;6.892;2023-08-06T10:22:12;20.70;76.90
52669;DHT22;59898;52.786;6.892;2023-08-06T10:25:35;20.60;74.30
52669;DHT22;59898;52.786;6.892;2023-08-06T10:28:56;20.40;75.70
52669;DHT22;59898;52.786;6.892;2023-08-06T10:32:17;20.20;76.10
52669;DHT22;59898;52.786;6.892;2023-08-06T10:35:48;20.20;77.30
52669;DHT22;59898;52.786;6.892;2023-08-06T10:39:13;20.50;77.10
52669;DHT22;59898;52.786;6.892;2023-08-06T10:42:34;20.70;76.50
52669;DHT22;59898;52.786;6.892;2023-08-06T10:45:55;20.80;76.20
52669;DHT22;59898;52.786;6.892;2023-08-06T10:49:17;21.00;75.60
52669;DHT22;59898;52.786;6.892;2023-08-06T10:52:38;21.10;75.30
52669;DHT22;59898;52.786;6.892;2023-08-06T10:55:58;21.30;74.20
52669;DHT22;59898;52.786;6.892;2023-08-06T10:59:20;21.50;73.90
52669;DHT22;59898;52.786;6.892;2023-08-06T11:02:41;21.70;72.50
52669;DHT22;59898;52.786;6.892;2023-08-06T11:06:02;21.90;72.10
52669;DHT22;59898;52.786;6.892;2023-08-06T11:09:23;22.10;71.10
52669;DHT22;59898;52.786;6.892;2023-08-06T11:12:44;22.10;71.10
52669;DHT22;59898;52.786;6.892;2023-08-06T11:16:05;22.10;70.10
52669;DHT22;59898;52.786;6.892;2023-08-06T11:19:26;21.80;70.10
52669;DHT22;59898;52.786;6.892;2023-08-06T11:22:46;21.50;70.60
52669;DHT22;59898;52.786;6.892;2023-08-06T11:26:07;21.20;69.70
52669;DHT22;59898;52.786;6.892;2023-08-06T11:29:28;21.00;70.90
52669;DHT22;59898;52.786;6.892;2023-08-06T11:32:49;20.90;71.90
52669;DHT22;59898;52.786;6.892;2023-08-06T11:36:09;20.90;72.50
52669;DHT22;59898;52.786;6.892;2023-08-06T11:39:30;21.00;71.70
52669;DHT22;59898;52.786;6.892;2023-08-06T11:42:51;21.10;71.60
52669;DHT22;59898;52.786;6.892;2023-08-06T11:46:11;21.20;70.90
52669;DHT22;59898;52.786;6.892;2023-08-06T11:49:46;21.10;71.00
52669;DHT22;59898;52.786;6.892;2023-08-06T11:53:07;21.10;70.40
52669;DHT22;59898;52.786;6.892;2023-08-06T11:56:32;20.90;70.00
52669;DHT22;59898;52.786;6.892;2023-08-06T11:59:53;20.70;70.10
52669;DHT22;59898;52.786;6.892;2023-08-06T12:03:14;20.50;70.30
52669;DHT22;59898;52.786;6.892;2023-08-06T12:06:42;20.30;70.70
52669;DHT22;59898;52.786;6.892;2023-08-06T12:10:03;20.30;70.80
52669;DHT22;59898;52.786;6.892;2023-08-06T12:13:24;20.30;71.20
52669;DHT22;59898;52.786;6.892;2023-08-06T12:16:45;20.30;71.00
52669;DHT22;59898;52.786;6.892;2023-08-06T12:20:07;20.30;71.30
52669;DHT22;59898;52.786;6.892;2023-08-06T12:23:27;20.30;70.90
52669;DHT22;59898;52.786;6.892;2023-08-06T12:26:48;20.30;71.30
52669;DHT22;59898;52.786;6.892;2023-08-06T12:30:09;20.40;71.40
52669;DHT22;59898;52.786;6.892;2023-08-06T12:33:30;20.50;70.40
52669;DHT22;59898;52.786;6.892;2023-08-06T12:36:50;20.60;69.90
52669;DHT22;59898;52.786;6.892;2023-08-06T12:40:11;20.70;69.20
52669;DHT22;59898;52.786;6.892;2023-08-06T12:43:32;20.80;68.30
52669;DHT22;59898;52.786;6.892;2023-08-06T12:46:53;20.90;68.00
52669;DHT22;59898;52.786;6.892;2023-08-06T12:50:14;21.00;67.60
52669;DHT22;59898;52.786;6.892;2023-08-06T12:53:34;21.10;67.30
52669;DHT22;59898;52.786;6.892;2023-08-06T12:56:55;21.20;67.20
52669;DHT22;59898;52.786;6.892;2023-08-06T13:00:15;21.20;67.50
52669;DHT22;59898;52.786;6.892;2023-08-06T13:03:36;21.30;67.70
52669;DHT22;59898;52.786;6.892;2023-08-06T13:06:56;21.30;67.90
52669;DHT22;59898;52.786;6.892;2023-08-06T13:10:17;21.40;68.00
52669;DHT22;59898;52.786;6.892;2023-08-06T13:13:38;21.40;67.70
52669;DHT22;59898;52.786;6.892;2023-08-06T13:16:59;21.50;67.80
52669;DHT22;59898;52.786;6.892;2023-08-06T13:20:19;21.60;67.80
52669;DHT22;59898;52.786;6.892;2023-08-06T13:23:41;21.70;67.70
52669;DHT22;59898;52.786;6.892;2023-08-06T13:27:01;21.70;67.50
52669;DHT22;59898;52.786;6.892;2023-08-06T13:30:22;21.80;67.60
52669;DHT22;59898;52.786;6.892;2023-08-06T13:33:43;21.70;67.70
52669;DHT22;59898;52.786;6.892;2023-08-06T13:37:04;21.70;68.10
52669;DHT22;59898;52.786;6.892;2023-08-06T13:40:24;21.70;68.60
52669;DHT22;59898;52.786;6.892;2023-08-06T13:43:45;21.70;69.00
52669;DHT22;59898;52.786;6.892;2023-08-06T13:47:05;21.60;69.30
52669;DHT22;59898;52.786;6.892;2023-08-06T13:50:26;21.60;68.90
52669;DHT22;59898;52.786;6.892;2023-08-06T13:53:48;21.50;68.40
52669;DHT22;59898;52.786;6.892;2023-08-06T13:57:08;21.50;68.20
52669;DHT22;59898;52.786;6.892;2023-08-06T14:00:29;21.40;68.10
52669;DHT22;59898;52.786;6.892;2023-08-06T14:03:50;21.40;68.40
52669;DHT22;59898;52.786;6.892;2023-08-06T14:07:11;21.30;69.20
52669;DHT22;59898;52.786;6.892;2023-08-06T14:10:31;21.30;69.90
52669;DHT22;59898;52.786;6.892;2023-08-06T14:13:52;21.30;70.60
52669;DHT22;59898;52.786;6.892;2023-08-06T14:17:13;21.20;71.30
52669;DHT22;59898;52.786;6.892;2023-08-06T14:20:33;21.20;71.70
52669;DHT22;59898;52.786;6.892;2023-08-06T14:23:54;21.10;72.10
52669;DHT22;59898;52.786;6.892;2023-08-06T14:27:15;21.10;71.90
52669;DHT22;59898;52.786;6.892;2023-08-06T14:30:36;21.10;72.10
52669;DHT22;59898;52.786;6.892;2023-08-06T14:33:56;21.00;72.00
52669;DHT22;59898;52.786;6.892;2023-08-06T14:37:17;20.90;72.60
52669;DHT22;59898;52.786;6.892;2023-08-06T14:40:37;20.80;72.80
52669;DHT22;59898;52.786;6.892;2023-08-06T14:43:59;20.60;73.20
52669;DHT22;59898;52.786;6.892;2023-08-06T14:47:20;20.40;74.20
52669;DHT22;59898;52.786;6.892;2023-08-06T14:50:40;20.10;75.70
52669;DHT22;59898;52.786;6.892;2023-08-06T14:54:03;20.00;76.30
52669;DHT22;59898;52.786;6.892;2023-08-06T14:57:24;20.00;76.60
52669;DHT22;59898;52.786;6.892;2023-08-06T15:00:48;20.00;76.70
52669;DHT22;59898;52.786;6.892;2023-08-06T15:04:08;20.10;76.40
52669;DHT22;59898;52.786;6.892;2023-08-06T15:07:29;20.10;75.80
52669;DHT22;59898;52.786;6.892;2023-08-06T15:10:53;20.20;75.00
52669;DHT22;59898;52.786;6.892;2023-08-06T15:14:14;20.30;73.20
52669;DHT22;59898;52.786;6.892;2023-08-06T15:17:35;20.30;71.90
52669;DHT22;59898;52.786;6.892;2023-08-06T15:20:55;20.40;71.10
52669;DHT22;59898;52.786;6.892;2023-08-06T15:24:17;20.40;70.50
52669;DHT22;59898;52.786;6.892;2023-08-06T15:27:38;20.50;70.20
52669;DHT22;59898;52.786;6.892;2023-08-06T15:31:01;20.50;69.80
52669;DHT22;59898;52.786;6.892;2023-08-06T15:34:22;20.50;69.80
52669;DHT22;59898;52.786;6.892;2023-08-06T15:37:42;20.60;69.80
52669;DHT22;59898;52.786;6.892;2023-08-06T15:41:03;20.60;69.50
52669;DHT22;59898;52.786;6.892;2023-08-06T15:44:23;20.70;69.40
52669;DHT22;59898;52.786;6.892;2023-08-06T15:47:44;20.70;69.20
52669;DHT22;59898;52.786;6.892;2023-08-06T15:51:05;20.70;69.00
52669;DHT22;59898;52.786;6.892;2023-08-06T15:54:25;20.70;68.90
52669;DHT22;59898;52.786;6.892;2023-08-06T15:57:46;20.70;68.90
52669;DHT22;59898;52.786;6.892;2023-08-06T16:01:06;20.60;68.60
52669;DHT22;59898;52.786;6.892;2023-08-06T16:04:28;20.60;68.50
52669;DHT22;59898;52.786;6.892;2023-08-06T16:07:51;20.60;68.60
52669;DHT22;59898;52.786;6.892;2023-08-06T16:11:12;20.60;68.80
52669;DHT22;59898;52.786;6.892;2023-08-06T16:14:35;20.50;69.10
52669;DHT22;59898;52.786;6.892;2023-08-06T16:17:55;20.50;69.20
52669;DHT22;59898;52.786;6.892;2023-08-06T16:21:16;20.50;69.10
52669;DHT22;59898;52.786;6.892;2023-08-06T16:24:36;20.50;69.10
52669;DHT22;59898;52.786;6.892;2023-08-06T16:27:57;20.40;68.90
52669;DHT22;59898;52.786;6.892;2023-08-06T16:31:18;20.40;68.80
52669;DHT22;59898;52.786;6.892;2023-08-06T16:34:39;20.50;68.60
52669;DHT22;59898;52.786;6.892;2023-08-06T16:38:00;20.60;68.50
52669;DHT22;59898;52.786;6.892;2023-08-06T16:41:21;20.60;68.30
52669;DHT22;59898;52.786;6.892;2023-08-06T16:44:41;20.60;68.10
52669;DHT22;59898;52.786;6.892;2023-08-06T16:48:02;20.60;67.80
52669;DHT22;59898;52.786;6.892;2023-08-06T16:51:24;20.60;67.60
52669;DHT22;59898;52.786;6.892;2023-08-06T16:54:44;20.60;67.60
52669;DHT22;59898;52.786;6.892;2023-08-06T16:58:05;20.60;67.80
52669;DHT22;59898;52.786;6.892;2023-08-06T17:01:25;20.70;67.70
52669;DHT22;59898;52.786;6.892;2023-08-06T17:04:46;20.60;67.60
52669;DHT22;59898;52.786;6.892;2023-08-06T17:08:07;20.60;67.20
52669;DHT22;59898;52.786;6.892;2023-08-06T17:11:30;20.50;66.80
52669;DHT22;59898;52.786;6.892;2023-08-06T17:14:51;20.50;66.70
52669;DHT22;59898;52.786;6.892;2023-08-06T17:18:12;20.40;66.80
52669;DHT22;59898;52.786;6.892;2023-08-06T17:21:36;20.40;66.80
52669;DHT22;59898;52.786;6.892;2023-08-06T17:24:58;20.40;66.90
52669;DHT22;59898;52.786;6.892;2023-08-06T17:28:18;20.40;67.20
52669;DHT22;59898;52.786;6.892;2023-08-06T17:31:39;20.30;67.30
52669;DHT22;59898;52.786;6.892;2023-08-06T17:34:59;20.20;67.20
52669;DHT22;59898;52.786;6.892;2023-08-06T17:38:20;20.20;67.20
52669;DHT22;59898;52.786;6.892;2023-08-06T17:41:41;20.30;67.40
52669;DHT22;59898;52.786;6.892;2023-08-06T17:45:01;20.30;67.60
52669;DHT22;59898;52.786;6.892;2023-08-06T17:48:22;20.30;67.40
52669;DHT22;59898;52.786;6.892;2023-08-06T17:51:43;20.30;67.20
52669;DHT22;59898;52.786;6.892;2023-08-06T17:55:04;20.20;67.00
52669;DHT22;59898;52.786;6.892;2023-08-06T17:58:25;20.30;67.10
52669;DHT22;59898;52.786;6.892;2023-08-06T18:01:45;20.20;67.60
52669;DHT22;59898;52.786;6.892;2023-08-06T18:05:06;20.20;68.70
52669;DHT22;59898;52.786;6.892;2023-08-06T18:08:27;20.10;70.30
52669;DHT22;59898;52.786;6.892;2023-08-06T18:11:47;19.90;71.70
52669;DHT22;59898;52.786;6.892;2023-08-06T18:15:11;19.70;72.80
52669;DHT22;59898;52.786;6.892;2023-08-06T18:18:32;19.50;73.60
52669;DHT22;59898;52.786;6.892;2023-08-06T18:21:53;19.30;74.50
52669;DHT22;59898;52.786;6.892;2023-08-06T18:25:13;19.10;75.20
52669;DHT22;59898;52.786;6.892;2023-08-06T18:28:34;18.80;76.20
52669;DHT22;59898;52.786;6.892;2023-08-06T18:31:55;18.60;76.90
52669;DHT22;59898;52.786;6.892;2023-08-06T18:35:15;18.40;77.20
52669;DHT22;59898;52.786;6.892;2023-08-06T18:38:36;18.30;78.20
52669;DHT22;59898;52.786;6.892;2023-08-06T18:41:56;18.10;78.50
52669;DHT22;59898;52.786;6.892;2023-08-06T18:45:17;18.10;78.80
52669;DHT22;59898;52.786;6.892;2023-08-06T18:48:37;18.00;79.40
52669;DHT22;59898;52.786;6.892;2023-08-06T18:51:58;17.90;79.40
52669;DHT22;59898;52.786;6.892;2023-08-06T18:55:19;17.80;79.70
52669;DHT22;59898;52.786;6.892;2023-08-06T18:58:39;17.80;79.90
52669;DHT22;59898;52.786;6.892;2023-08-06T19:02:01;17.70;80.40
52669;DHT22;59898;52.786;6.892;2023-08-06T19:05:25;17.60;80.40
52669;DHT22;59898;52.786;6.892;2023-08-06T19:08:47;17.60;80.40
52669;DHT22;59898;52.786;6.892;2023-08-06T19:12:07;17.60;80.50
52669;DHT22;59898;52.786;6.892;2023-08-06T19:15:28;17.50;80.70
52669;DHT22;59898;52.786;6.892;2023-08-06T19:18:49;17.50;80.80
52669;DHT22;59898;52.786;6.892;2023-08-06T19:22:10;17.40;81.00
52669;DHT22;59898;52.786;6.892;2023-08-06T19:25:31;17.40;81.50
52669;DHT22;59898;52.786;6.892;2023-08-06T19:28:53;17.30;81.30
52669;DHT22;59898;52.786;6.892;2023-08-06T19:32:13;17.30;81.40
52669;DHT22;59898;52.786;6.892;2023-08-06T19:35:34;17.20;81.60
52669;DHT22;59898;52.786;6.892;2023-08-06T19:38:55;17.20;81.60
52669;DHT22;59898;52.786;6.892;2023-08-06T19:42:16;17.10;81.80
52669;DHT22;59898;52.786;6.892;2023-08-06T19:45:36;17.10;81.90
52669;DHT22;59898;52.786;6.892;2023-08-06T19:48:57;17.10;81.90
52669;DHT22;59898;52.786;6.892;2023-08-06T19:52:18;17.10;81.80
52669;DHT22;59898;52.786;6.892;2023-08-06T19:55:38;17.10;81.80
52669;DHT22;59898;52.786;6.892;2023-08-06T19:59:00;17.00;81.90
52669;DHT22;59898;52.786;6.892;2023-08-06T20:02:20;17.00;82.00
52669;DHT22;59898;52.786;6.892;2023-08-06T20:05:41;16.90;82.10
52669;DHT22;59898;52.786;6.892;2023-08-06T20:09:01;16.90;82.20
52669;DHT22;59898;52.786;6.892;2023-08-06T20:12:22;16.80;82.30
52669;DHT22;59898;52.786;6.892;2023-08-06T20:15:43;16.80;82.40
52669;DHT22;59898;52.786;6.892;2023-08-06T20:19:06;16.80;82.90
52669;DHT22;59898;52.786;6.892;2023-08-06T20:22:27;16.70;83.00
52669;DHT22;59898;52.786;6.892;2023-08-06T20:25:47;16.70;83.10
52669;DHT22;59898;52.786;6.892;2023-08-06T20:29:09;16.70;83.20
52669;DHT22;59898;52.786;6.892;2023-08-06T20:32:29;16.70;83.30
52669;DHT22;59898;52.786;6.892;2023-08-06T20:35:50;16.70;83.40
52669;DHT22;59898;52.786;6.892;2023-08-06T20:39:11;16.70;83.60
52669;DHT22;59898;52.786;6.892;2023-08-06T20:42:31;16.70;84.10
52669;DHT22;59898;52.786;6.892;2023-08-06T20:45:57;16.60;84.10
52669;DHT22;59898;52.786;6.892;2023-08-06T20:49:24;16.60;84.30
52669;DHT22;59898;52.786;6.892;2023-08-06T20:52:44;16.50;84.70
52669;DHT22;59898;52.786;6.892;2023-08-06T20:56:05;16.50;84.80
52669;DHT22;59898;52.786;6.892;2023-08-06T20:59:26;16.50;85.10
52669;DHT22;59898;52.786;6.892;2023-08-06T21:02:46;16.50;85.10
52669;DHT22;59898;52.786;6.892;2023-08-06T21:06:07;16.50;85.20
52669;DHT22;59898;52.786;6.892;2023-08-06T21:09:28;16.40;85.40
52669;DHT22;59898;52.786;6.892;2023-08-06T21:12:49;16.40;85.40
52669;DHT22;59898;52.786;6.892;2023-08-06T21:16:09;16.40;85.50